createdAt,value
2023-06-11T00:02:05.159Z,59.94
2023-06-11T00:04:35.864Z,59.93
2023-06-11T00:07:06.440Z,60.16
2023-06-11T00:09:34.626Z,60.13
2023-06-11T00:12:02.197Z,60.33
2023-06-11T00:14:29.715Z,60.10
2023-06-11T00:16:58.583Z,60.30
2023-06-11T00:19:30.087Z,60.23
2023-06-11T00:21:58.062Z,60.66
2023-06-11T00:24:25.671Z,60.65
2023-06-11T00:26:53.166Z,60.66
2023-06-11T00:29:20.669Z,60.55
2023-06-11T00:31:48.238Z,60.67
2023-06-11T00:34:17.201Z,60.85
2023-06-11T00:36:45.251Z,60.39
2023-06-11T00:39:13.354Z,60.97
2023-06-11T00:41:46.529Z,60.85
2023-06-11T00:44:18.550Z,61.14
2023-06-11T00:46:48.320Z,61.06
2023-06-11T00:49:17.261Z,61.06
2023-06-11T00:51:46.898Z,61.51
2023-06-11T00:54:17.717Z,61.12
2023-06-11T00:56:45.460Z,61.38
2023-06-11T00:59:14.323Z,61.64
2023-06-11T01:01:47.773Z,61.76
2023-06-11T01:04:19.503Z,62.02
2023-06-11T01:06:50.701Z,62.28
2023-06-11T01:09:21.776Z,62.17
2023-06-11T01:11:50.318Z,62.34
2023-06-11T01:14:18.652Z,62.49
2023-06-11T01:16:53.802Z,62.56
2023-06-11T01:19:48.390Z,62.70
2023-06-11T01:22:20.568Z,62.66
2023-06-11T01:25:08.952Z,63.04
2023-06-11T01:27:57.137Z,62.43
2023-06-11T01:30:25.556Z,62.65
2023-06-11T01:32:57.045Z,62.82
2023-06-11T01:35:24.957Z,62.70
2023-06-11T01:37:56.507Z,62.86
2023-06-11T01:40:24.890Z,62.82
2023-06-11T01:42:54.134Z,63.35
2023-06-11T01:45:23.280Z,63.42
2023-06-11T01:47:52.539Z,64.49
2023-06-11T01:50:21.463Z,64.26
2023-06-11T01:52:49.367Z,64.00
2023-06-11T01:55:17.037Z,65.21
2023-06-11T01:57:44.560Z,64.57
2023-06-11T02:00:14.211Z,63.78
2023-06-11T02:02:43.084Z,63.74
2023-06-11T02:05:11.252Z,63.75
2023-06-11T02:07:39.163Z,63.63
2023-06-11T02:10:07.446Z,63.31
2023-06-11T02:12:34.958Z,63.40
2023-06-11T02:15:02.500Z,62.98
2023-06-11T02:17:31.325Z,63.38
2023-06-11T02:19:59.696Z,63.86
2023-06-11T02:22:27.263Z,64.32
2023-06-11T02:24:54.775Z,64.04
2023-06-11T02:27:22.335Z,63.94
2023-06-11T02:29:49.827Z,63.74
2023-06-11T02:32:17.457Z,63.94
2023-06-11T02:34:46.383Z,64.29
2023-06-11T02:37:13.987Z,64.47
2023-06-11T02:39:41.507Z,64.38
2023-06-11T02:42:09.704Z,64.56
2023-06-11T02:44:37.326Z,64.52
2023-06-11T02:47:05.255Z,64.81
2023-06-11T02:49:32.809Z,64.71
2023-06-11T02:52:01.834Z,64.79
2023-06-11T02:54:29.403Z,65.14
2023-06-11T02:56:56.913Z,65.08
2023-06-11T02:59:24.443Z,64.84
2023-06-11T03:01:52.153Z,65.25
2023-06-11T03:04:20.004Z,65.30
2023-06-11T03:06:47.526Z,65.62
2023-06-11T03:09:16.348Z,65.64
2023-06-11T03:11:43.839Z,65.66
2023-06-11T03:14:11.369Z,66.59
2023-06-11T03:16:38.889Z,66.04
2023-06-11T03:19:06.409Z,65.94
2023-06-11T03:21:33.927Z,66.33
2023-06-11T03:24:01.571Z,66.09
2023-06-11T03:26:30.424Z,66.67
2023-06-11T03:28:57.946Z,67.04
2023-06-11T03:31:25.600Z,66.97
2023-06-11T03:33:53.185Z,67.18
2023-06-11T03:36:20.754Z,67.27
2023-06-11T03:38:48.254Z,66.92
2023-06-11T03:41:16.000Z,67.22
2023-06-11T03:43:44.821Z,67.48
2023-06-11T03:46:12.373Z,67.55
2023-06-11T03:48:39.860Z,67.77
2023-06-11T03:51:07.770Z,67.61
2023-06-11T03:53:35.308Z,68.07
2023-06-11T03:56:02.814Z,67.55
2023-06-11T03:58:30.347Z,67.70
2023-06-11T04:00:59.313Z,67.67
2023-06-11T04:03:26.989Z,67.90
2023-06-11T04:05:54.565Z,67.62
2023-06-11T04:08:22.103Z,67.64
2023-06-11T04:10:49.647Z,67.59
2023-06-11T04:13:17.159Z,67.55
2023-06-11T04:15:44.665Z,67.57
2023-06-11T04:18:13.646Z,67.36
2023-06-11T04:20:41.201Z,67.93
2023-06-11T04:23:08.766Z,68.52
2023-06-11T04:25:37.507Z,68.32
2023-06-11T04:28:05.598Z,67.63
2023-06-11T04:30:34.553Z,67.30
2023-06-11T04:33:05.543Z,67.02
2023-06-11T04:35:35.297Z,67.27
2023-06-11T04:38:04.048Z,66.52
2023-06-11T04:40:31.575Z,66.23
2023-06-11T04:42:59.759Z,66.42
2023-06-11T04:45:27.869Z,65.95
2023-06-11T04:47:55.411Z,66.26
2023-06-11T04:50:23.088Z,66.21
2023-06-11T04:52:53.153Z,66.34
2023-06-11T04:55:25.554Z,66.38
2023-06-11T04:57:53.788Z,66.47
2023-06-11T05:00:21.403Z,66.17
2023-06-11T05:02:50.874Z,66.01
2023-06-11T05:05:18.554Z,66.19
2023-06-11T05:07:46.195Z,66.60
2023-06-11T05:10:16.633Z,66.58
2023-06-11T05:12:44.197Z,66.49
2023-06-11T05:15:12.638Z,66.22
2023-06-11T05:17:40.551Z,66.04
2023-06-11T05:20:10.180Z,65.74
2023-06-11T05:22:37.744Z,65.58
2023-06-11T05:25:05.932Z,65.38
2023-06-11T05:27:34.764Z,64.91
2023-06-11T05:30:03.228Z,65.17
2023-06-11T05:32:32.286Z,64.76
2023-06-11T05:35:00.049Z,64.32
2023-06-11T05:37:27.580Z,64.15
2023-06-11T05:39:55.189Z,64.23
2023-06-11T05:42:22.759Z,63.48
2023-06-11T05:44:51.581Z,63.50
2023-06-11T05:47:19.460Z,63.09
2023-06-11T05:49:47.122Z,62.49
2023-06-11T05:52:14.684Z,62.30
2023-06-11T05:54:42.227Z,62.00
2023-06-11T05:57:19.843Z,61.60
2023-06-11T05:59:47.413Z,61.27
2023-06-11T06:02:16.482Z,61.23
2023-06-11T06:04:44.129Z,61.46
2023-06-11T06:07:11.644Z,61.13
2023-06-11T06:09:39.252Z,61.20
2023-06-11T06:12:07.862Z,60.57
2023-06-11T06:14:35.964Z,59.90
2023-06-11T06:17:03.561Z,59.73
2023-06-11T06:19:32.422Z,59.71
2023-06-11T06:21:59.944Z,59.16
2023-06-11T06:24:27.579Z,57.60
2023-06-11T06:26:57.374Z,57.25
2023-06-11T06:29:25.221Z,56.26
2023-06-11T06:31:52.787Z,57.10
2023-06-11T06:34:20.374Z,56.70
2023-06-11T06:36:49.215Z,55.50
2023-06-11T06:39:16.764Z,55.23
2023-06-11T06:41:44.271Z,55.40
2023-06-11T06:44:11.977Z,54.86
2023-06-11T06:46:39.674Z,55.31
2023-06-11T06:49:07.219Z,54.08
2023-06-11T06:51:34.910Z,54.23
2023-06-11T06:54:03.803Z,54.51
2023-06-11T06:56:31.335Z,53.81
2023-06-11T06:58:58.851Z,54.24
2023-06-11T07:01:26.469Z,54.13
2023-06-11T07:03:54.014Z,53.96
2023-06-11T07:06:21.606Z,54.08
2023-06-11T07:08:49.220Z,54.26
2023-06-11T07:11:18.209Z,53.99
2023-06-11T07:13:45.713Z,53.53
2023-06-11T07:16:13.493Z,53.14
2023-06-11T07:18:41.116Z,53.31
2023-06-11T07:21:09.394Z,53.17
2023-06-11T07:23:36.951Z,53.53
2023-06-11T07:26:04.618Z,53.08
2023-06-11T07:28:33.484Z,52.78
2023-06-11T07:31:01.041Z,52.25
2023-06-11T07:33:28.648Z,52.35
2023-06-11T07:35:57.153Z,52.10
2023-06-11T07:38:25.047Z,52.04
2023-06-11T07:40:53.199Z,52.22
2023-06-11T07:43:20.752Z,52.03
2023-06-11T07:45:49.840Z,50.66
2023-06-11T07:48:19.295Z,51.40
2023-06-11T07:50:46.770Z,51.22
2023-06-11T07:53:14.861Z,51.13
2023-06-11T07:55:43.588Z,50.32
2023-06-11T07:58:11.099Z,50.51
2023-06-11T08:00:38.667Z,50.77
2023-06-11T08:03:07.590Z,50.20
2023-06-11T08:05:35.163Z,50.39
2023-06-11T08:08:02.726Z,50.33
2023-06-11T08:10:30.241Z,49.77
2023-06-11T08:12:57.734Z,48.91
2023-06-11T08:15:25.505Z,48.91
2023-06-11T08:17:53.367Z,47.64
2023-06-11T08:20:22.526Z,48.35
2023-06-11T08:22:50.144Z,49.57
2023-06-11T08:25:17.842Z,46.74
2023-06-11T08:27:45.590Z,49.28
2023-06-11T08:30:14.087Z,47.23
2023-06-11T08:32:41.777Z,46.64
2023-06-11T08:35:09.822Z,45.93
2023-06-11T08:37:38.711Z,45.46
2023-06-11T08:40:11.896Z,44.52
2023-06-11T08:42:39.759Z,45.71
2023-06-11T08:45:08.770Z,44.53
2023-06-11T08:47:42.309Z,43.74
2023-06-11T08:50:11.462Z,44.80
2023-06-11T08:52:43.709Z,46.60
2023-06-11T08:55:11.497Z,43.97
2023-06-11T08:57:39.499Z,45.20
2023-06-11T09:00:11.184Z,43.96
2023-06-11T09:02:39.239Z,42.10
2023-06-11T09:05:07.479Z,42.20
2023-06-11T09:07:37.349Z,42.00
2023-06-11T09:10:08.317Z,41.68
2023-06-11T09:12:37.124Z,42.29
2023-06-11T09:15:06.995Z,40.91
2023-06-11T09:17:35.688Z,40.60
2023-06-11T09:20:07.152Z,40.57
2023-06-11T09:22:37.227Z,41.60
2023-06-11T09:25:10.025Z,42.17
2023-06-11T09:27:39.351Z,42.36
2023-06-11T09:30:17.206Z,41.78
2023-06-11T09:32:47.270Z,40.72
2023-06-11T09:35:22.213Z,40.09
2023-06-11T09:37:52.060Z,40.34
2023-06-11T09:40:25.359Z,41.03
2023-06-11T09:42:53.554Z,43.28
2023-06-11T09:45:24.577Z,39.58
2023-06-11T09:47:52.881Z,37.17
2023-06-11T09:50:25.119Z,35.83
2023-06-11T09:52:56.001Z,34.29
2023-06-11T09:55:27.214Z,34.26
2023-06-11T09:57:56.117Z,34.43
2023-06-11T10:00:24.365Z,35.67
2023-06-11T10:02:52.323Z,33.74
2023-06-11T10:05:20.272Z,32.81
2023-06-11T10:07:51.801Z,31.94
2023-06-11T10:10:23.292Z,33.08
2023-06-11T10:12:56.580Z,32.53
2023-06-11T10:15:25.278Z,33.40
2023-06-11T10:17:54.623Z,33.61
2023-06-11T10:20:27.427Z,33.84
2023-06-11T10:23:07.371Z,33.79
2023-06-11T10:25:36.880Z,32.72
2023-06-11T10:28:06.974Z,32.34
2023-06-11T10:30:34.637Z,32.42
2023-06-11T10:33:05.639Z,32.46
2023-06-11T10:35:34.191Z,34.66
2023-06-11T10:38:06.640Z,32.99
2023-06-11T10:40:35.859Z,33.58
2023-06-11T10:43:13.768Z,33.76
2023-06-11T10:45:41.391Z,32.14
2023-06-11T10:48:12.652Z,32.22
2023-06-11T10:50:40.898Z,32.17
2023-06-11T10:53:14.159Z,31.62
2023-06-11T10:55:45.552Z,32.34
2023-06-11T10:58:23.853Z,30.25
2023-06-11T11:00:54.004Z,31.89
2023-06-11T11:03:23.399Z,31.24
2023-06-11T11:05:52.181Z,30.92
2023-06-11T11:08:21.723Z,30.25
2023-06-11T11:10:55.520Z,31.85
2023-06-11T11:13:24.818Z,31.12
2023-06-11T11:15:53.004Z,30.38
2023-06-11T11:18:20.586Z,31.24
2023-06-11T11:20:48.202Z,29.84
2023-06-11T11:23:15.712Z,30.35
2023-06-11T11:25:43.541Z,29.70
2023-06-11T11:28:12.588Z,29.21
2023-06-11T11:30:41.880Z,30.38
2023-06-11T11:33:09.720Z,29.60
2023-06-11T11:35:47.630Z,29.60
2023-06-11T11:38:15.471Z,30.11
2023-06-11T11:40:43.186Z,29.94
2023-06-11T11:43:13.680Z,30.83
2023-06-11T11:45:48.027Z,31.00
2023-06-11T11:48:16.209Z,30.67
2023-06-11T11:50:45.838Z,30.63
2023-06-11T11:53:16.350Z,30.89
2023-06-11T11:56:00.323Z,30.46
2023-06-11T11:58:38.687Z,30.72
2023-06-11T12:01:09.797Z,29.67
2023-06-11T12:03:38.420Z,29.53
2023-06-11T12:06:07.991Z,29.40
2023-06-11T12:08:37.189Z,29.60
2023-06-11T12:11:07.699Z,31.06
2023-06-11T12:13:36.082Z,28.78
2023-06-11T12:16:05.119Z,28.54
2023-06-11T12:18:34.470Z,28.55
2023-06-11T12:21:02.106Z,31.92
2023-06-11T12:23:29.652Z,31.56
2023-06-11T12:25:57.256Z,27.90
2023-06-11T12:28:24.844Z,28.33
2023-06-11T12:30:52.577Z,28.09
2023-06-11T12:33:20.387Z,28.46
2023-06-11T12:35:49.433Z,27.35
2023-06-11T12:38:18.495Z,28.02
2023-06-11T12:40:46.169Z,28.86
2023-06-11T12:43:13.703Z,28.86
2023-06-11T12:45:41.359Z,29.17
2023-06-11T12:48:09.063Z,28.69
2023-06-11T12:50:36.768Z,29.21
2023-06-11T12:53:05.841Z,28.51
2023-06-11T12:55:33.604Z,28.51
2023-06-11T12:58:01.135Z,28.97
2023-06-11T13:00:31.500Z,29.85
2023-06-11T13:02:59.410Z,28.98
2023-06-11T13:05:27.815Z,29.87
2023-06-11T13:07:57.346Z,30.08
2023-06-11T13:10:27.060Z,28.10
2023-06-11T13:12:59.506Z,29.89
2023-06-11T13:15:27.424Z,28.18
2023-06-11T13:17:55.334Z,29.58
2023-06-11T13:20:23.409Z,29.60
2023-06-11T13:22:51.368Z,30.31
2023-06-11T13:25:19.099Z,29.68
2023-06-11T13:27:49.372Z,27.83
2023-06-11T13:30:17.626Z,26.44
2023-06-11T13:32:45.384Z,26.92
2023-06-11T13:35:13.538Z,26.40
2023-06-11T13:37:41.754Z,26.69
2023-06-11T13:40:12.717Z,27.24
2023-06-11T13:42:41.359Z,26.75
2023-06-11T13:45:11.011Z,26.00
2023-06-11T13:47:39.036Z,27.36
2023-06-11T13:50:07.863Z,24.82
2023-06-11T13:52:36.542Z,26.22
2023-06-11T13:55:04.297Z,26.44
2023-06-11T13:57:33.907Z,26.13
2023-06-11T14:00:01.693Z,25.78
2023-06-11T14:02:30.597Z,25.70
2023-06-11T14:04:58.363Z,25.78
2023-06-11T14:07:25.984Z,26.41
2023-06-11T14:09:53.621Z,24.93
2023-06-11T14:12:21.111Z,25.64
2023-06-11T14:14:48.700Z,26.92
2023-06-11T14:17:54.656Z,25.42
2023-06-11T14:20:23.695Z,24.99
2023-06-11T14:22:51.256Z,24.75
2023-06-11T14:25:18.962Z,25.71
2023-06-11T14:27:46.511Z,27.47
2023-06-11T14:30:15.220Z,24.47
2023-06-11T14:32:42.801Z,26.07
2023-06-11T14:35:10.573Z,27.01
2023-06-11T14:37:39.405Z,25.03
2023-06-11T14:40:08.303Z,26.18
2023-06-11T14:42:35.915Z,23.94
2023-06-11T14:45:03.690Z,24.33
2023-06-11T14:47:31.447Z,25.71
2023-06-11T14:49:59.008Z,23.77
2023-06-11T14:52:26.539Z,23.42
2023-06-11T14:54:55.573Z,24.86
2023-06-11T14:57:26.111Z,24.10
2023-06-11T14:59:54.348Z,25.12
2023-06-11T15:02:21.993Z,24.11
2023-06-11T15:04:49.602Z,22.85
2023-06-11T15:07:33.387Z,23.54
2023-06-11T15:10:05.950Z,23.46
2023-06-11T15:12:33.664Z,22.82
2023-06-11T15:15:02.136Z,23.36
2023-06-11T15:17:36.532Z,23.00
2023-06-11T15:20:06.037Z,22.41
2023-06-11T15:22:36.084Z,22.28
2023-06-11T15:25:05.240Z,23.12
2023-06-11T15:27:32.810Z,22.12
2023-06-11T15:30:00.418Z,21.95
2023-06-11T15:32:28.089Z,22.60
2023-06-11T15:34:55.647Z,22.77
2023-06-11T15:37:23.177Z,22.00
2023-06-11T15:39:51.667Z,22.90
2023-06-11T15:42:21.057Z,23.11
2023-06-11T15:44:49.502Z,22.04
2023-06-11T15:47:17.696Z,23.27
2023-06-11T15:49:45.431Z,21.97
2023-06-11T15:52:13.018Z,22.12
2023-06-11T15:54:40.588Z,22.12
2023-06-11T15:57:08.576Z,21.59
2023-06-11T15:59:37.662Z,22.26
2023-06-11T16:02:05.870Z,21.51
2023-06-11T16:04:33.671Z,21.40
2023-06-11T16:07:01.978Z,22.46
2023-06-11T16:09:29.696Z,21.20
2023-06-11T16:11:57.291Z,21.03
2023-06-11T16:14:24.901Z,21.90
2023-06-11T16:16:53.760Z,20.78
2023-06-11T16:19:21.336Z,20.70
2023-06-11T16:21:48.922Z,21.08
2023-06-11T16:24:16.529Z,20.40
2023-06-11T16:26:46.839Z,20.07
2023-06-11T16:29:14.561Z,19.74
2023-06-11T16:31:43.963Z,19.56
2023-06-11T16:34:13.406Z,20.85
2023-06-11T16:36:40.982Z,21.70
2023-06-11T16:39:25.819Z,20.26
2023-06-11T16:41:54.717Z,18.99
2023-06-11T16:44:22.225Z,18.93
2023-06-11T16:46:49.820Z,19.03
2023-06-11T16:49:19.311Z,19.78
2023-06-11T16:51:47.020Z,19.47
2023-06-11T16:54:18.291Z,18.54
2023-06-11T16:56:46.468Z,18.23
2023-06-11T16:59:14.201Z,17.21
2023-06-11T17:01:41.789Z,17.55
2023-06-11T17:04:12.079Z,16.59
2023-06-11T17:06:42.737Z,17.13
2023-06-11T17:09:10.396Z,16.84
2023-06-11T17:11:37.902Z,16.14
2023-06-11T17:14:05.980Z,16.13
2023-06-11T17:16:33.668Z,16.12
2023-06-11T17:19:01.157Z,15.79
2023-06-11T17:21:28.679Z,16.14
2023-06-11T17:23:58.285Z,16.08
2023-06-11T17:26:28.202Z,16.04
2023-06-11T17:28:55.742Z,16.38
2023-06-11T17:31:23.369Z,16.48
2023-06-11T17:33:50.894Z,16.30
2023-06-11T17:36:18.685Z,16.78
2023-06-11T17:38:47.126Z,17.52
2023-06-11T17:41:16.549Z,17.33
2023-06-11T17:43:44.788Z,17.12
2023-06-11T17:46:13.571Z,17.31
2023-06-11T17:48:41.221Z,17.81
2023-06-11T17:51:08.837Z,18.16
2023-06-11T17:53:36.388Z,18.83
2023-06-11T17:56:03.948Z,18.90
2023-06-11T17:58:32.784Z,18.53
2023-06-11T18:01:00.461Z,19.43
2023-06-11T18:03:28.130Z,19.11
2023-06-11T18:05:55.701Z,19.15
2023-06-11T18:08:23.250Z,19.41
2023-06-11T18:10:50.809Z,19.77
2023-06-11T18:13:18.344Z,20.78
2023-06-11T18:15:47.505Z,20.80
2023-06-11T18:18:16.179Z,21.05
2023-06-11T18:20:43.687Z,20.87
2023-06-11T18:23:33.750Z,21.02
2023-06-11T18:26:01.290Z,21.91
2023-06-11T18:28:28.888Z,21.60
2023-06-11T18:30:57.794Z,21.26
2023-06-11T18:33:25.375Z,21.54
2023-06-11T18:35:52.916Z,21.90
2023-06-11T18:38:20.493Z,22.13
2023-06-11T18:40:47.998Z,22.09
2023-06-11T18:43:15.480Z,22.03
2023-06-11T18:45:43.086Z,22.53
2023-06-11T18:48:12.154Z,22.37
2023-06-11T18:50:40.054Z,22.68
2023-06-11T18:53:07.585Z,23.29
2023-06-11T18:55:35.228Z,23.38
2023-06-11T18:58:07.316Z,24.43
2023-06-11T19:00:37.651Z,24.78
2023-06-11T19:03:05.779Z,24.90
2023-06-11T19:05:35.034Z,25.69
2023-06-11T19:08:03.477Z,25.76
2023-06-11T19:10:31.257Z,26.22
2023-06-11T19:12:59.301Z,26.65
2023-06-11T19:15:26.809Z,26.76
2023-06-11T19:17:54.419Z,26.49
2023-06-11T19:20:22.045Z,26.90
2023-06-11T19:22:50.881Z,26.87
2023-06-11T19:25:18.394Z,27.26
2023-06-11T19:27:46.009Z,27.02
2023-06-11T19:30:15.801Z,27.14
2023-06-11T19:32:43.834Z,27.29
2023-06-11T19:35:11.744Z,27.99
2023-06-11T19:37:39.281Z,28.55
2023-06-11T19:40:10.360Z,28.48
2023-06-11T19:42:38.302Z,28.34
2023-06-11T19:45:08.248Z,28.31
2023-06-11T19:47:36.209Z,28.83
2023-06-11T19:50:06.209Z,28.85
2023-06-11T19:52:33.862Z,28.82
2023-06-11T19:55:01.733Z,29.16
2023-06-11T19:57:30.561Z,29.03
2023-06-11T20:00:00.005Z,28.94
2023-06-11T20:02:28.418Z,29.15
2023-06-11T20:04:56.851Z,29.47
2023-06-11T20:07:24.389Z,29.94
2023-06-11T20:09:52.743Z,29.88
2023-06-11T20:12:20.462Z,29.48
2023-06-11T20:14:49.839Z,29.84
2023-06-11T20:17:17.366Z,30.19
2023-06-11T20:19:45.110Z,29.84
2023-06-11T20:22:12.709Z,30.46
2023-06-11T20:24:40.616Z,30.56
2023-06-11T20:27:11.464Z,30.51
2023-06-11T20:29:39.361Z,31.54
2023-06-11T20:32:10.150Z,31.64
2023-06-11T20:34:38.394Z,31.43
2023-06-11T20:37:06.758Z,31.56
2023-06-11T20:39:34.284Z,31.78
2023-06-11T20:42:01.794Z,32.21
2023-06-11T20:44:29.328Z,32.22
2023-06-11T20:46:56.920Z,32.61
2023-06-11T20:49:25.885Z,32.89
2023-06-11T20:51:57.829Z,32.47
2023-06-11T20:54:25.581Z,32.47
2023-06-11T20:56:53.090Z,32.70
2023-06-11T20:59:20.747Z,32.62
2023-06-11T21:01:48.333Z,32.52
2023-06-11T21:04:15.972Z,33.04
2023-06-11T21:06:44.875Z,32.93
2023-06-11T21:09:12.681Z,33.74
2023-06-11T21:11:40.165Z,33.47
2023-06-11T21:14:14.332Z,33.54
2023-06-11T21:16:42.905Z,34.26
2023-06-11T21:19:10.595Z,34.88
2023-06-11T21:21:38.553Z,34.25
2023-06-11T21:24:08.478Z,34.80
2023-06-11T21:26:36.197Z,35.20
2023-06-11T21:29:04.173Z,34.77
2023-06-11T21:31:31.753Z,35.28
2023-06-11T21:33:59.890Z,35.38
2023-06-11T21:36:27.588Z,36.10
2023-06-11T21:38:55.822Z,35.46
2023-06-11T21:41:24.656Z,36.00
2023-06-11T21:43:52.145Z,36.15
2023-06-11T21:46:19.697Z,36.60
2023-06-11T21:48:47.225Z,35.58
2023-06-11T21:51:14.886Z,36.25
2023-06-11T21:53:42.421Z,36.63
2023-06-11T21:56:10.394Z,35.89
2023-06-11T21:58:39.477Z,35.94
2023-06-11T22:01:07.047Z,36.31
2023-06-11T22:03:34.620Z,36.46
2023-06-11T22:06:03.941Z,37.01
2023-06-11T22:08:31.661Z,36.62
2023-06-11T22:10:59.169Z,37.17
2023-06-11T22:13:27.786Z,37.12
2023-06-11T22:16:04.722Z,38.07
2023-06-11T22:18:33.956Z,37.45
2023-06-11T22:21:01.799Z,38.12
2023-06-11T22:23:48.942Z,38.19
2023-06-11T22:26:18.110Z,38.15
2023-06-11T22:28:45.768Z,38.48
2023-06-11T22:31:14.801Z,38.49
2023-06-11T22:33:42.345Z,39.02
2023-06-11T22:36:10.039Z,39.04
2023-06-11T22:38:37.598Z,39.52
2023-06-11T22:41:05.161Z,39.18
2023-06-11T22:43:32.758Z,39.34
2023-06-11T22:46:00.294Z,39.95
2023-06-11T22:48:29.170Z,40.32
2023-06-11T22:50:57.816Z,40.17
2023-06-11T22:53:28.732Z,40.62
2023-06-11T22:55:57.172Z,40.58
2023-06-11T22:58:24.698Z,40.72
2023-06-11T23:00:52.308Z,40.78
2023-06-11T23:03:19.881Z,41.37
2023-06-11T23:05:48.811Z,41.62
2023-06-11T23:08:16.421Z,41.85
2023-06-11T23:10:45.665Z,42.39
2023-06-11T23:13:13.220Z,42.00
2023-06-11T23:15:40.782Z,42.47
2023-06-11T23:18:10.898Z,42.66
2023-06-11T23:20:38.492Z,42.68
2023-06-11T23:23:07.512Z,43.51
2023-06-11T23:25:35.110Z,43.66
2023-06-11T23:28:02.667Z,43.83
2023-06-11T23:30:30.887Z,44.02
2023-06-11T23:33:01.065Z,44.18
2023-06-11T23:35:28.764Z,44.47
2023-06-11T23:37:57.657Z,44.27
2023-06-11T23:40:26.659Z,44.66
2023-06-11T23:42:54.250Z,44.73
2023-06-11T23:45:21.789Z,44.82
2023-06-11T23:47:49.404Z,45.32
2023-06-11T23:50:17.010Z,45.35
2023-06-11T23:52:44.646Z,45.31
2023-06-11T23:55:12.206Z,45.68
2023-06-11T23:57:41.310Z,46.09
